createdAt,value
2017-12-11T00:00:56.147Z,90.68
2017-12-11T00:03:21.966Z,91.01
2017-12-11T00:05:48.156Z,91.03
2017-12-11T00:08:13.955Z,91.08
2017-12-11T00:10:39.753Z,90.99
2017-12-11T00:13:05.572Z,91.18
2017-12-11T00:15:31.367Z,91.15
2017-12-11T00:17:57.155Z,91.10
2017-12-11T00:20:22.987Z,91.12
2017-12-11T00:22:49.582Z,90.93
2017-12-11T00:25:15.387Z,91.00
2017-12-11T00:27:41.184Z,90.83
2017-12-11T00:30:06.985Z,90.95
2017-12-11T00:32:32.780Z,91.12
2017-12-11T00:34:58.843Z,91.56
2017-12-11T00:37:24.636Z,91.28
2017-12-11T00:39:50.433Z,91.43
2017-12-11T00:42:16.259Z,91.38
2017-12-11T00:44:42.063Z,91.30
2017-12-11T00:47:07.867Z,91.57
2017-12-11T00:49:33.916Z,91.47
2017-12-11T00:51:59.715Z,91.24
2017-12-11T00:54:25.503Z,91.38
2017-12-11T00:56:51.305Z,91.34
2017-12-11T00:59:17.090Z,91.30
2017-12-11T01:01:42.897Z,91.16
2017-12-11T01:04:08.695Z,91.09
2017-12-11T01:06:34.499Z,91.63
2017-12-11T01:09:00.335Z,91.71
2017-12-11T01:11:26.135Z,91.29
2017-12-11T01:13:51.952Z,91.34
2017-12-11T01:16:17.778Z,91.26
2017-12-11T01:18:43.578Z,91.16
2017-12-11T01:21:09.416Z,91.17
2017-12-11T01:23:35.563Z,90.77
2017-12-11T01:26:01.356Z,90.89
2017-12-11T01:28:27.135Z,90.71
2017-12-11T01:30:52.983Z,90.65
2017-12-11T01:33:18.791Z,90.59
2017-12-11T01:35:44.581Z,90.62
2017-12-11T01:38:10.488Z,90.33
2017-12-11T01:40:36.327Z,90.24
2017-12-11T01:43:02.152Z,90.42
2017-12-11T01:45:27.999Z,90.22
2017-12-11T01:47:53.814Z,89.94
2017-12-11T01:50:19.618Z,89.94
2017-12-11T01:52:45.432Z,90.07
2017-12-11T01:55:11.214Z,90.00
2017-12-11T01:57:37.011Z,90.39
2017-12-11T02:00:02.849Z,89.80
2017-12-11T02:02:28.652Z,90.19
2017-12-11T02:04:54.458Z,90.12
2017-12-11T02:07:20.243Z,89.68
2017-12-11T02:09:46.052Z,89.62
2017-12-11T02:12:11.884Z,89.55
2017-12-11T02:14:37.690Z,89.73
2017-12-11T02:17:03.503Z,90.11
2017-12-11T02:19:29.407Z,90.19
2017-12-11T02:21:55.205Z,90.09
2017-12-11T02:24:21.000Z,89.80
2017-12-11T02:26:46.846Z,89.92
2017-12-11T02:29:12.671Z,89.70
2017-12-11T02:31:38.499Z,89.99
2017-12-11T02:34:04.326Z,89.68
2017-12-11T02:36:30.129Z,89.83
2017-12-11T02:38:55.960Z,89.88
2017-12-11T02:41:21.772Z,89.63
2017-12-11T02:43:47.565Z,89.43
2017-12-11T02:46:13.350Z,90.32
2017-12-11T02:48:39.254Z,90.35
2017-12-11T02:51:05.060Z,89.63
2017-12-11T02:53:30.881Z,89.75
2017-12-11T02:55:56.672Z,89.88
2017-12-11T02:58:22.459Z,89.92
2017-12-11T03:00:48.274Z,89.63
2017-12-11T03:03:14.066Z,90.40
2017-12-11T03:05:39.841Z,90.30
2017-12-11T03:08:05.700Z,90.11
2017-12-11T03:10:31.478Z,90.47
2017-12-11T03:12:57.276Z,90.67
2017-12-11T03:15:23.086Z,90.73
2017-12-11T03:17:48.959Z,90.65
2017-12-11T03:20:14.747Z,90.77
2017-12-11T03:22:40.542Z,90.58
2017-12-11T03:25:06.339Z,90.69
2017-12-11T03:27:32.446Z,90.65
2017-12-11T03:29:58.243Z,90.44
2017-12-11T03:32:24.037Z,90.61
2017-12-11T03:34:49.840Z,90.41
2017-12-11T03:37:15.612Z,90.42
2017-12-11T03:39:41.402Z,90.60
2017-12-11T03:42:07.215Z,90.85
2017-12-11T03:44:33.003Z,90.19
2017-12-11T03:46:58.788Z,90.79
2017-12-11T03:49:24.695Z,91.42
2017-12-11T03:51:50.479Z,91.21
2017-12-11T03:54:16.267Z,91.12
2017-12-11T03:56:42.057Z,91.13
2017-12-11T03:59:07.902Z,91.11
2017-12-11T04:01:33.987Z,91.72
2017-12-11T04:03:59.759Z,91.77
2017-12-11T04:06:25.552Z,92.16
2017-12-11T04:08:51.395Z,91.78
2017-12-11T04:11:17.166Z,91.53
2017-12-11T04:13:42.955Z,91.87
2017-12-11T04:16:09.076Z,91.62
2017-12-11T04:18:34.855Z,91.76
2017-12-11T04:21:00.618Z,92.09
2017-12-11T04:23:26.410Z,91.97
2017-12-11T04:25:52.193Z,92.44
2017-12-11T04:28:17.984Z,92.44
2017-12-11T04:30:43.871Z,92.19
2017-12-11T04:33:09.654Z,91.92
2017-12-11T04:35:35.447Z,92.12
2017-12-11T04:38:01.232Z,92.18
2017-12-11T04:40:27.014Z,92.01
2017-12-11T04:42:52.799Z,91.89
2017-12-11T04:45:18.595Z,92.52
2017-12-11T04:47:44.375Z,92.49
2017-12-11T04:50:10.155Z,92.50
2017-12-11T04:52:35.921Z,92.60
2017-12-11T04:55:01.691Z,92.47
2017-12-11T04:57:27.778Z,92.90
2017-12-11T04:59:53.717Z,92.88
2017-12-11T05:02:20.287Z,92.33
2017-12-11T05:04:46.953Z,92.43
2017-12-11T05:07:13.568Z,92.72
2017-12-11T05:09:39.533Z,89.88
2017-12-11T05:12:06.153Z,87.23
2017-12-11T05:14:32.767Z,86.64
2017-12-11T05:16:59.395Z,84.91
2017-12-11T05:19:25.226Z,82.60
2017-12-11T05:21:51.775Z,83.17
2017-12-11T05:24:17.804Z,83.12
2017-12-11T05:26:43.583Z,84.79
2017-12-11T05:29:09.387Z,84.79
2017-12-11T05:31:35.203Z,81.05
2017-12-11T05:34:01.000Z,83.57
2017-12-11T05:36:26.765Z,85.36
2017-12-11T05:38:52.576Z,86.86
2017-12-11T05:41:18.371Z,87.34
2017-12-11T05:43:44.150Z,87.48
2017-12-11T05:46:09.988Z,88.76
2017-12-11T05:48:35.779Z,88.07
2017-12-11T05:51:01.555Z,88.09
2017-12-11T05:53:27.463Z,87.84
2017-12-11T05:55:53.246Z,87.96
2017-12-11T05:58:19.031Z,88.98
2017-12-11T06:00:44.819Z,88.57
2017-12-11T06:03:10.610Z,88.27
2017-12-11T06:05:36.403Z,89.18
2017-12-11T06:08:02.205Z,89.37
2017-12-11T06:10:28.002Z,89.71
2017-12-11T06:12:53.794Z,89.19
2017-12-11T06:15:19.591Z,89.96
2017-12-11T06:17:45.375Z,90.84
2017-12-11T06:20:11.153Z,90.60
2017-12-11T06:22:36.954Z,89.92
2017-12-11T06:25:02.772Z,89.96
2017-12-11T06:27:28.558Z,90.04
2017-12-11T06:29:54.697Z,90.11
2017-12-11T06:32:20.472Z,89.57
2017-12-11T06:34:46.251Z,90.17
2017-12-11T06:37:12.043Z,90.03
2017-12-11T06:39:37.815Z,89.95
2017-12-11T06:42:03.611Z,89.55
2017-12-11T06:44:29.423Z,89.01
2017-12-11T06:46:55.186Z,87.35
2017-12-11T06:49:21.009Z,89.13
2017-12-11T06:51:47.830Z,88.67
2017-12-11T06:54:13.608Z,88.56
2017-12-11T06:56:39.386Z,87.65
2017-12-11T06:59:05.168Z,86.13
2017-12-11T07:01:30.947Z,86.60
2017-12-11T07:03:56.710Z,87.68
2017-12-11T07:06:22.802Z,88.08
2017-12-11T07:08:48.582Z,89.59
2017-12-11T07:11:14.366Z,87.42
2017-12-11T07:13:40.157Z,87.53
2017-12-11T07:16:05.935Z,87.13
2017-12-11T07:18:31.712Z,86.44
2017-12-11T07:20:57.507Z,85.86
2017-12-11T07:23:23.287Z,84.72
2017-12-11T07:25:49.070Z,84.81
2017-12-11T07:28:14.895Z,85.82
2017-12-11T07:30:40.683Z,84.34
2017-12-11T07:33:06.459Z,86.08
2017-12-11T07:35:32.336Z,85.28
2017-12-11T07:37:58.118Z,85.04
2017-12-11T07:40:23.918Z,84.08
2017-12-11T07:42:49.867Z,85.49
2017-12-11T07:45:15.685Z,86.00
2017-12-11T07:47:41.463Z,85.95
2017-12-11T07:50:07.271Z,84.34
2017-12-11T07:52:33.047Z,85.53
2017-12-11T07:54:59.106Z,88.55
2017-12-11T07:57:24.891Z,88.46
2017-12-11T07:59:50.661Z,87.97
2017-12-11T08:02:16.487Z,88.17
2017-12-11T08:04:42.318Z,86.24
2017-12-11T08:07:08.115Z,85.56
2017-12-11T08:09:33.891Z,85.62
2017-12-11T08:11:59.669Z,87.61
2017-12-11T08:14:25.456Z,88.71
2017-12-11T08:16:51.232Z,89.53
2017-12-11T08:19:17.010Z,87.44
2017-12-11T08:21:42.816Z,87.09
2017-12-11T08:24:08.602Z,85.96
2017-12-11T08:26:34.380Z,86.54
2017-12-11T08:29:00.454Z,86.41
2017-12-11T08:31:26.274Z,83.91
2017-12-11T08:33:52.056Z,84.17
2017-12-11T08:36:17.861Z,85.21
2017-12-11T08:38:43.630Z,83.41
2017-12-11T08:41:09.410Z,83.66
2017-12-11T08:43:35.207Z,85.51
2017-12-11T08:46:00.984Z,87.21
2017-12-11T08:48:26.759Z,85.78
2017-12-11T08:50:53.652Z,86.00
2017-12-11T08:53:19.475Z,82.87
2017-12-11T08:55:45.251Z,83.51
2017-12-11T08:58:11.363Z,84.43
2017-12-11T09:00:37.259Z,86.38
2017-12-11T09:03:03.051Z,88.11
2017-12-11T09:05:29.010Z,88.54
2017-12-11T09:07:54.798Z,89.16
2017-12-11T09:10:22.029Z,89.56
2017-12-11T09:12:50.272Z,89.50
2017-12-11T09:15:16.058Z,89.80
2017-12-11T09:17:42.833Z,89.16
2017-12-11T09:20:08.826Z,88.40
2017-12-11T09:22:34.630Z,88.52
2017-12-11T09:25:00.639Z,89.00
2017-12-11T09:27:26.692Z,89.26
2017-12-11T09:29:52.495Z,89.59
2017-12-11T09:32:18.299Z,89.74
2017-12-11T09:34:44.406Z,90.08
2017-12-11T09:37:12.486Z,89.54
2017-12-11T09:39:38.292Z,88.82
2017-12-11T09:42:05.091Z,89.15
2017-12-11T09:44:30.911Z,86.94
2017-12-11T09:46:56.723Z,85.37
2017-12-11T09:49:22.531Z,86.06
2017-12-11T09:51:50.915Z,87.11
2017-12-11T09:54:17.858Z,86.84
2017-12-11T09:56:44.903Z,84.96
2017-12-11T09:59:11.361Z,84.62
2017-12-11T10:01:37.391Z,83.89
2017-12-11T10:04:03.971Z,84.44
2017-12-11T10:06:29.872Z,85.28
2017-12-11T10:08:55.961Z,85.55
2017-12-11T10:11:22.197Z,84.15
2017-12-11T10:13:48.008Z,86.54
2017-12-11T10:16:14.813Z,85.97
2017-12-11T10:18:40.669Z,84.73
2017-12-11T10:21:07.187Z,86.39
2017-12-11T10:23:34.303Z,86.30
2017-12-11T10:26:00.084Z,87.13
2017-12-11T10:28:26.538Z,86.67
2017-12-11T10:30:52.416Z,85.96
2017-12-11T10:33:18.276Z,86.34
2017-12-11T10:35:45.540Z,85.75
2017-12-11T10:38:11.398Z,85.20
2017-12-11T10:40:37.503Z,85.17
2017-12-11T10:43:03.378Z,87.19
2017-12-11T10:45:29.682Z,85.79
2017-12-11T10:47:55.629Z,84.00
2017-12-11T10:50:21.448Z,82.75
2017-12-11T10:52:47.845Z,84.76
2017-12-11T10:55:14.923Z,85.81
2017-12-11T10:57:45.048Z,85.88
2017-12-11T11:00:11.346Z,84.56
2017-12-11T11:02:37.296Z,84.43
2017-12-11T11:05:04.593Z,81.18
2017-12-11T11:07:30.627Z,83.04
2017-12-11T11:09:57.415Z,83.36
2017-12-11T11:12:23.220Z,82.62
2017-12-11T11:14:48.999Z,82.86
2017-12-11T11:17:15.482Z,83.12
2017-12-11T11:19:41.295Z,84.11
2017-12-11T11:22:07.089Z,84.65
2017-12-11T11:24:32.903Z,86.36
2017-12-11T11:26:59.542Z,84.79
2017-12-11T11:29:25.363Z,81.60
2017-12-11T11:31:51.162Z,82.96
2017-12-11T11:34:17.333Z,83.67
2017-12-11T11:36:43.630Z,83.55
2017-12-11T11:39:09.410Z,82.99
2017-12-11T11:41:35.206Z,82.08
2017-12-11T11:44:00.996Z,82.28
2017-12-11T11:46:26.928Z,80.89
2017-12-11T11:48:53.281Z,82.86
2017-12-11T11:51:19.070Z,82.05
2017-12-11T11:53:44.899Z,81.40
2017-12-11T11:56:10.709Z,82.71
2017-12-11T11:58:36.611Z,81.78
2017-12-11T12:01:02.430Z,79.69
2017-12-11T12:03:28.236Z,79.59
2017-12-11T12:05:54.035Z,81.31
2017-12-11T12:08:20.158Z,80.84
2017-12-11T12:10:47.599Z,82.73
2017-12-11T12:13:14.727Z,81.66
2017-12-11T12:15:40.519Z,80.91
2017-12-11T12:18:06.986Z,82.23
2017-12-11T12:20:32.882Z,80.29
2017-12-11T12:22:59.450Z,81.19
2017-12-11T12:25:25.506Z,83.18
2017-12-11T12:27:52.576Z,83.97
2017-12-11T12:30:18.748Z,85.01
2017-12-11T12:32:45.302Z,84.88
2017-12-11T12:35:12.079Z,83.47
2017-12-11T12:37:37.883Z,83.58
2017-12-11T12:40:05.590Z,83.74
2017-12-11T12:42:31.596Z,83.79
2017-12-11T12:44:57.443Z,84.44
2017-12-11T12:47:23.262Z,85.32
2017-12-11T12:49:49.087Z,83.34
2017-12-11T12:52:14.883Z,84.60
2017-12-11T12:54:40.687Z,85.06
2017-12-11T12:57:06.970Z,86.60
2017-12-11T12:59:32.750Z,84.82
2017-12-11T13:01:58.576Z,85.50
2017-12-11T13:04:25.198Z,84.87
2017-12-11T13:06:51.562Z,84.13
2017-12-11T13:09:17.362Z,86.03
2017-12-11T13:11:45.397Z,83.47
2017-12-11T13:14:11.231Z,83.80
2017-12-11T13:16:37.488Z,84.66
2017-12-11T13:19:03.261Z,85.47
2017-12-11T13:21:29.051Z,85.39
2017-12-11T13:23:54.863Z,84.78
2017-12-11T13:26:20.642Z,84.78
2017-12-11T13:28:46.418Z,85.40
2017-12-11T13:31:12.203Z,85.49
2017-12-11T13:33:37.991Z,85.29
2017-12-11T13:36:03.859Z,84.80
2017-12-11T13:38:29.643Z,85.13
2017-12-11T13:40:55.432Z,85.68
2017-12-11T13:43:21.263Z,85.10
2017-12-11T13:45:47.151Z,84.62
2017-12-11T13:48:12.922Z,85.17
2017-12-11T13:50:39.628Z,83.53
2017-12-11T13:53:05.407Z,83.99
2017-12-11T13:55:31.178Z,84.07
2017-12-11T13:57:56.971Z,85.48
2017-12-11T14:00:22.941Z,84.35
2017-12-11T14:02:49.728Z,84.87
2017-12-11T14:05:15.569Z,86.06
2017-12-11T14:07:41.342Z,87.20
2017-12-11T14:10:07.822Z,85.93
2017-12-11T14:12:34.197Z,85.47
2017-12-11T14:14:59.970Z,85.82
2017-12-11T14:17:25.749Z,87.09
2017-12-11T14:19:51.708Z,86.59
2017-12-11T14:22:17.486Z,86.23
2017-12-11T14:24:43.256Z,85.86
2017-12-11T14:27:09.046Z,85.48
2017-12-11T14:29:34.817Z,87.05
2017-12-11T14:32:00.640Z,87.27
2017-12-11T14:34:26.445Z,88.02
2017-12-11T14:36:52.239Z,88.79
2017-12-11T14:39:18.002Z,89.16
2017-12-11T14:41:43.775Z,88.73
2017-12-11T14:44:10.913Z,89.17
2017-12-11T14:46:37.329Z,89.72
2017-12-11T14:49:03.168Z,89.24
2017-12-11T14:51:30.023Z,88.38
2017-12-11T14:53:55.860Z,88.87
2017-12-11T14:56:22.810Z,87.41
2017-12-11T14:58:50.350Z,87.63
2017-12-11T15:01:17.166Z,89.82
2017-12-11T15:03:43.519Z,88.13
2017-12-11T15:06:10.062Z,87.39
2017-12-11T15:08:36.339Z,87.72
2017-12-11T15:11:02.172Z,87.74
2017-12-11T15:13:28.538Z,88.43
2017-12-11T15:15:55.808Z,88.07
2017-12-11T15:18:21.618Z,88.28
2017-12-11T15:20:47.453Z,87.88
2017-12-11T15:23:13.814Z,88.63
2017-12-11T15:25:39.650Z,89.33
2017-12-11T15:28:05.478Z,89.15
2017-12-11T15:30:31.277Z,88.08
2017-12-11T15:32:57.746Z,88.18
2017-12-11T15:35:23.553Z,88.67
2017-12-11T15:37:51.727Z,87.93
2017-12-11T15:40:20.706Z,87.36
2017-12-11T15:42:46.687Z,88.02
2017-12-11T15:45:12.516Z,88.71
2017-12-11T15:47:39.595Z,87.58
2017-12-11T15:50:05.757Z,87.22
2017-12-11T15:52:31.553Z,85.52
2017-12-11T15:54:57.382Z,84.30
2017-12-11T15:57:23.185Z,85.42
2017-12-11T15:59:49.605Z,86.68
2017-12-11T16:02:16.488Z,86.33
2017-12-11T16:04:42.959Z,84.78
2017-12-11T16:07:09.880Z,85.93
2017-12-11T16:09:38.001Z,89.43
2017-12-11T16:12:07.277Z,89.96
2017-12-11T16:14:35.450Z,88.30
2017-12-11T16:17:02.111Z,87.32
2017-12-11T16:19:32.404Z,86.49
2017-12-11T16:22:00.390Z,86.83
2017-12-11T16:24:29.033Z,88.42
2017-12-11T16:26:56.036Z,87.17
2017-12-11T16:29:23.940Z,88.08
2017-12-11T16:31:51.358Z,88.12
2017-12-11T16:34:19.223Z,87.00
2017-12-11T16:36:45.064Z,86.51
2017-12-11T16:39:11.023Z,87.26
2017-12-11T16:41:37.523Z,88.24
2017-12-11T16:44:03.372Z,88.05
2017-12-11T16:46:29.748Z,86.71
2017-12-11T16:48:55.551Z,86.16
2017-12-11T16:51:22.466Z,87.91
2017-12-11T16:53:48.277Z,87.17
2017-12-11T16:56:15.947Z,87.59
2017-12-11T16:58:41.783Z,88.91
2017-12-11T17:01:08.857Z,88.16
2017-12-11T17:03:34.731Z,88.87
2017-12-11T17:06:01.010Z,88.82
2017-12-11T17:08:26.804Z,89.09
2017-12-11T17:10:53.698Z,88.49
2017-12-11T17:13:19.686Z,89.15
2017-12-11T17:15:46.315Z,88.90
2017-12-11T17:18:12.102Z,88.20
2017-12-11T17:20:38.163Z,88.61
2017-12-11T17:23:03.966Z,88.62
2017-12-11T17:25:30.655Z,87.88
2017-12-11T17:27:56.470Z,88.25
2017-12-11T17:30:23.307Z,87.74
2017-12-11T17:32:49.307Z,88.75
2017-12-11T17:35:15.865Z,87.86
2017-12-11T17:37:41.715Z,87.44
2017-12-11T17:40:07.543Z,87.43
2017-12-11T17:42:33.384Z,85.92
2017-12-11T17:44:59.178Z,87.97
2017-12-11T17:47:26.067Z,87.75
2017-12-11T17:49:51.863Z,88.05
2017-12-11T17:52:17.656Z,87.87
2017-12-11T17:54:43.544Z,85.56
2017-12-11T17:57:09.372Z,86.41
2017-12-11T17:59:35.167Z,87.43
2017-12-11T18:02:01.968Z,87.34
2017-12-11T18:04:27.769Z,86.44
2017-12-11T18:06:54.156Z,86.52
2017-12-11T18:09:20.154Z,87.11
2017-12-11T18:11:45.949Z,86.55
2017-12-11T18:14:11.779Z,88.33
2017-12-11T18:16:37.790Z,88.49
2017-12-11T18:19:03.585Z,88.26
2017-12-11T18:21:29.864Z,88.22
2017-12-11T18:23:56.393Z,87.88
2017-12-11T18:26:25.038Z,87.73
2017-12-11T18:28:51.807Z,87.86
2017-12-11T18:31:17.859Z,87.79
2017-12-11T18:33:44.449Z,87.59
2017-12-11T18:36:11.209Z,87.08
2017-12-11T18:38:37.007Z,88.17
2017-12-11T18:41:03.671Z,88.61
2017-12-11T18:43:29.499Z,88.61
2017-12-11T18:45:55.577Z,90.20
2017-12-11T18:48:21.380Z,89.66
2017-12-11T18:50:47.168Z,89.20
2017-12-11T18:53:14.259Z,89.53
2017-12-11T18:55:40.533Z,89.89
2017-12-11T18:58:06.668Z,89.95
2017-12-11T19:00:32.688Z,90.90
2017-12-11T19:02:59.560Z,91.66
2017-12-11T19:05:25.379Z,91.11
2017-12-11T19:07:52.082Z,91.63
2017-12-11T19:10:18.181Z,87.53
2017-12-11T19:12:44.058Z,88.36
2017-12-11T19:15:09.886Z,89.09
2017-12-11T19:17:35.706Z,88.70
2017-12-11T19:20:04.562Z,90.80
2017-12-11T19:22:30.396Z,88.47
2017-12-11T19:24:57.259Z,89.83
2017-12-11T19:27:23.108Z,90.05
2017-12-11T19:29:48.929Z,88.84
2017-12-11T19:32:15.018Z,92.21
2017-12-11T19:34:41.493Z,92.64
2017-12-11T19:37:07.367Z,91.30
2017-12-11T19:39:34.937Z,89.99
2017-12-11T19:42:00.930Z,90.40
2017-12-11T19:44:26.745Z,89.43
2017-12-11T19:46:55.608Z,90.07
2017-12-11T19:49:22.240Z,88.94
2017-12-11T19:51:48.213Z,89.43
2017-12-11T19:54:15.743Z,90.86
2017-12-11T19:56:41.792Z,89.49
2017-12-11T19:59:07.596Z,91.07
2017-12-11T20:01:33.560Z,87.64
2017-12-11T20:03:59.432Z,88.91
2017-12-11T20:06:25.274Z,90.31
2017-12-11T20:08:53.128Z,89.13
2017-12-11T20:11:18.920Z,87.02
2017-12-11T20:13:45.059Z,88.93
2017-12-11T20:16:10.863Z,87.63
2017-12-11T20:18:36.649Z,86.21
2017-12-11T20:21:03.331Z,88.94
2017-12-11T20:23:29.128Z,89.39
2017-12-11T20:25:54.913Z,89.07
2017-12-11T20:28:21.305Z,90.40
2017-12-11T20:30:48.119Z,88.44
2017-12-11T20:33:13.924Z,86.75
2017-12-11T20:35:40.398Z,87.73
2017-12-11T20:38:06.183Z,89.07
2017-12-11T20:40:32.026Z,88.71
2017-12-11T20:42:57.879Z,87.97
2017-12-11T20:45:23.725Z,89.53
2017-12-11T20:47:49.539Z,89.05
2017-12-11T20:50:16.211Z,87.40
2017-12-11T20:52:43.015Z,89.13
2017-12-11T20:55:09.599Z,89.82
2017-12-11T20:57:35.729Z,89.59
2017-12-11T21:00:01.561Z,87.69
2017-12-11T21:02:28.771Z,87.38
2017-12-11T21:04:55.730Z,88.43
2017-12-11T21:07:22.108Z,87.78
2017-12-11T21:09:48.581Z,88.01
2017-12-11T21:12:14.395Z,87.80
2017-12-11T21:14:40.234Z,87.73
2017-12-11T21:17:06.064Z,88.50
2017-12-11T21:19:31.864Z,89.54
2017-12-11T21:21:57.695Z,89.47
2017-12-11T21:24:23.502Z,89.57
2017-12-11T21:26:50.227Z,88.64
2017-12-11T21:29:17.076Z,87.97
2017-12-11T21:31:42.868Z,89.22
2017-12-11T21:34:08.681Z,87.93
2017-12-11T21:36:35.619Z,88.60
2017-12-11T21:39:03.542Z,89.93
2017-12-11T21:41:29.426Z,87.47
2017-12-11T21:43:55.987Z,87.29
2017-12-11T21:46:22.072Z,87.42
2017-12-11T21:48:48.790Z,87.65
2017-12-11T21:51:14.994Z,87.92
2017-12-11T21:53:41.842Z,86.38
2017-12-11T21:56:08.273Z,88.70
2017-12-11T21:58:34.697Z,88.70
2017-12-11T22:01:03.645Z,89.31
2017-12-11T22:03:29.634Z,88.13
2017-12-11T22:05:56.975Z,86.55
2017-12-11T22:08:23.722Z,87.48
2017-12-11T22:10:49.526Z,87.50
2017-12-11T22:13:15.662Z,88.28
2017-12-11T22:15:42.335Z,87.70
2017-12-11T22:18:09.962Z,87.98
2017-12-11T22:20:35.789Z,87.84
2017-12-11T22:23:03.126Z,87.89
2017-12-11T22:25:29.781Z,88.00
2017-12-11T22:27:55.884Z,88.42
2017-12-11T22:30:22.632Z,88.97
2017-12-11T22:32:48.449Z,88.35
2017-12-11T22:35:14.492Z,88.17
2017-12-11T22:37:40.652Z,87.06
2017-12-11T22:40:06.819Z,87.59
2017-12-11T22:42:33.402Z,87.60
2017-12-11T22:45:00.878Z,88.01
2017-12-11T22:47:26.916Z,87.46
2017-12-11T22:49:53.572Z,87.55
2017-12-11T22:52:19.455Z,87.53
2017-12-11T22:54:45.258Z,86.71
2017-12-11T22:57:12.049Z,88.59
2017-12-11T22:59:37.835Z,87.88
2017-12-11T23:02:03.850Z,88.40
2017-12-11T23:04:29.646Z,89.12
2017-12-11T23:06:55.495Z,89.90
2017-12-11T23:09:21.303Z,88.72
2017-12-11T23:11:47.070Z,88.07
2017-12-11T23:14:12.885Z,88.30
2017-12-11T23:16:38.666Z,88.66
2017-12-11T23:19:04.438Z,89.39
2017-12-11T23:21:30.250Z,88.52
2017-12-11T23:23:56.030Z,88.08
2017-12-11T23:26:21.804Z,89.24
2017-12-11T23:28:47.609Z,87.64
2017-12-11T23:31:13.710Z,88.62
2017-12-11T23:33:39.490Z,87.50
2017-12-11T23:36:05.274Z,88.16
2017-12-11T23:38:31.070Z,88.52
2017-12-11T23:40:56.870Z,87.87
2017-12-11T23:43:22.650Z,88.94
2017-12-11T23:45:48.451Z,88.32
2017-12-11T23:48:14.232Z,87.87
2017-12-11T23:50:40.007Z,86.58
2017-12-11T23:53:06.073Z,86.92
2017-12-11T23:55:31.847Z,86.74
2017-12-11T23:57:57.616Z,87.56
